Time;durP1;ratioP1;P1;durP2;ratioP2;P2;SDS_P1;SDS_P2;PMS_P1;PMS_P2;Temp;Humidity;BMP_temperature;BMP_pressure;BME280_temperature;BME280_humidity;BME280_pressure;Samples;Min_cycle;Max_cycle;Signal;HPM_P1;HPM_P2
2022/11/20 00:02:05;;;;;;;2.43;2.23;;;;;;;8.11;78.15;95027.13;5090441;28;20196;-81
2022/11/20 00:04:32;;;;;;;2.63;2.10;;;;;;;8.10;78.60;95028.09;5090439;28;20207;-81
2022/11/20 00:06:58;;;;;;;2.20;2.00;;;;;;;8.11;78.04;95024.56;5089993;28;20234;-81
2022/11/20 00:09:25;;;;;;;2.37;2.03;;;;;;;8.14;78.48;95028.53;5090149;28;20204;-81
2022/11/20 00:11:51;;;;;;;2.83;2.40;;;;;;;8.08;78.43;95039.50;5090327;28;20670;-81
2022/11/20 00:14:19;;;;;;;2.97;2.50;;;;;;;8.05;78.46;95035.53;5082055;28;20196;-81
2022/11/20 00:16:46;;;;;;;2.63;2.23;;;;;;;8.08;78.41;95040.28;5093412;28;20227;-82
2022/11/20 00:19:12;;;;;;;2.03;1.93;;;;;;;8.14;78.19;95036.22;5094382;28;20189;-81
2022/11/20 00:21:39;;;;;;;2.60;2.10;;;;;;;8.15;78.43;95043.75;5093926;28;20196;-80
2022/11/20 00:24:06;;;;;;;2.97;2.50;;;;;;;8.23;78.55;95042.88;5094052;28;20194;-82
2022/11/20 00:26:32;;;;;;;2.53;2.10;;;;;;;8.20;78.91;95046.59;5094398;28;20251;-82
2022/11/20 00:29:01;;;;;;;2.40;2.20;;;;;;;8.18;78.73;95040.03;5086874;28;20196;-81
2022/11/20 00:31:30;;;;;;;3.40;2.20;;;;;;;8.07;78.87;95043.03;5094982;28;20188;-82
2022/11/20 00:33:57;;;;;;;2.37;2.17;;;;;;;8.05;79.15;95040.66;5094170;28;20196;-81
2022/11/20 00:36:25;;;;;;;2.40;2.20;;;;;;;8.03;79.38;95042.59;5094618;28;20220;-80
2022/11/20 00:38:53;;;;;;;3.00;2.43;;;;;;;8.07;79.33;95041.28;5094006;28;20195;-81
2022/11/20 00:41:19;;;;;;;3.67;2.40;;;;;;;8.02;78.90;95040.19;5094379;28;20199;-82
2022/11/20 00:43:45;;;;;;;3.47;2.57;;;;;;;7.95;79.05;95043.44;5094053;28;20200;-81
2022/11/20 00:46:16;;;;;;;3.20;2.43;;;;;;;7.96;79.35;95046.81;5094110;28;20196;-81
2022/11/20 00:48:44;;;;;;;2.47;2.27;;;;;;;7.94;79.48;95048.75;5095818;28;20185;-81
2022/11/20 00:51:12;;;;;;;2.93;2.50;;;;;;;7.98;79.11;95047.44;5094917;28;20207;-82
2022/11/20 00:53:39;;;;;;;3.67;2.30;;;;;;;8.00;78.64;95053.19;5093626;28;20212;-81
2022/11/20 00:56:08;;;;;;;2.30;2.10;;;;;;;8.05;78.50;95055.22;5094220;28;20226;-81
2022/11/20 00:58:36;;;;;;;3.17;2.60;;;;;;;8.05;78.09;95056.03;5093257;28;20215;-80
2022/11/20 01:01:04;;;;;;;3.93;2.50;;;;;;;8.07;78.07;95058.44;5094310;28;20196;-82
2022/11/20 01:03:32;;;;;;;2.53;2.30;;;;;;;8.04;78.14;95062.13;5093416;28;20192;-81
2022/11/20 01:06:02;;;;;;;2.67;2.47;;;;;;;8.07;78.51;95061.00;5092700;28;20193;-81
2022/11/20 01:08:31;;;;;;;3.00;2.47;;;;;;;8.06;78.07;95065.31;5093033;28;20563;-80
2022/11/20 01:11:00;;;;;;;2.37;2.17;;;;;;;7.97;78.22;95072.28;5092939;28;20253;-81
2022/11/20 01:13:38;;;;;;;2.43;2.23;;;;;;;7.98;78.12;95073.88;5093219;28;20192;-81
2022/11/20 01:16:06;;;;;;;2.33;2.13;;;;;;;7.96;78.76;95069.88;5092423;28;20207;-81
2022/11/20 01:18:33;;;;;;;2.53;2.33;;;;;;;7.86;78.68;95072.69;5092142;28;20200;-81
2022/11/20 01:21:04;;;;;;;2.93;2.63;;;;;;;7.93;78.40;95071.00;5093030;28;20257;-81
2022/11/20 01:23:34;;;;;;;2.50;2.30;;;;;;;8.03;77.90;95075.13;5088467;28;20204;-82
2022/11/20 01:26:03;;;;;;;2.83;2.50;;;;;;;8.08;77.76;95072.84;5081560;28;20195;-81
2022/11/20 01:28:30;;;;;;;3.00;2.60;;;;;;;8.03;78.32;95073.34;5092655;28;20695;-81
2022/11/20 01:30:56;;;;;;;3.37;2.63;;;;;;;8.05;78.41;95075.75;5092710;28;20196;-81
2022/11/20 01:33:23;;;;;;;5.53;2.33;;;;;;;8.09;78.42;95066.72;5092538;28;20192;-81
2022/11/20 01:35:49;;;;;;;3.20;2.20;;;;;;;8.08;77.99;95076.16;5092554;28;20215;-81
2022/11/20 01:38:17;;;;;;;4.07;2.30;;;;;;;8.13;77.80;95081.59;5091955;28;20212;-81
2022/11/20 01:40:44;;;;;;;2.73;2.13;;;;;;;8.19;77.98;95074.97;5092111;28;20188;-81
2022/11/20 01:43:22;;;;;;;2.67;2.30;;;;;;;8.16;78.02;95075.31;5091799;28;20196;-80
2022/11/20 01:46:02;;;;;;;2.50;2.30;;;;;;;8.16;77.74;95085.56;5092529;28;20242;-81
2022/11/20 01:48:34;;;;;;;2.40;2.20;;;;;;;8.01;77.91;95082.97;5091939;28;20662;-80
2022/11/20 01:51:02;;;;;;;2.40;2.20;;;;;;;8.01;78.26;95082.97;5092575;28;20196;-80
2022/11/20 01:53:41;;;;;;;2.73;2.50;;;;;;;8.02;78.05;95089.69;5091968;28;20200;-81
2022/11/20 01:56:11;;;;;;;2.70;2.30;;;;;;;8.00;78.05;95078.81;5092066;28;20216;-81
2022/11/20 01:58:43;;;;;;;2.60;2.23;;;;;;;8.05;78.04;95079.09;5091727;28;20192;-81
2022/11/20 02:01:10;;;;;;;2.57;2.30;;;;;;;7.98;78.05;95080.75;5092206;28;20192;-81
2022/11/20 02:03:37;;;;;;;3.07;2.27;;;;;;;8.00;78.21;95078.03;5092054;28;20195;-80
2022/11/20 02:06:11;;;;;;;2.83;2.30;;;;;;;8.00;78.24;95071.13;5092227;28;20197;-81
2022/11/20 02:08:39;;;;;;;3.47;2.00;;;;;;;7.97;78.13;95074.81;5085623;28;20200;-81
2022/11/20 02:11:06;;;;;;;3.17;2.17;;;;;;;7.99;78.23;95077.22;5092195;28;20193;-81
2022/11/20 02:13:44;;;;;;;2.27;2.10;;;;;;;7.97;77.97;95079.97;5092153;28;20213;-81
2022/11/20 02:16:24;;;;;;;2.50;2.30;;;;;;;7.93;77.90;95083.81;5090490;28;20218;-79
2022/11/20 02:18:51;;;;;;;3.30;2.20;;;;;;;7.95;78.07;95076.75;5091323;28;20214;-81
2022/11/20 02:21:35;;;;;;;2.73;2.20;;;;;;;7.91;78.19;95078.06;5080407;28;20185;-82
2022/11/20 02:24:12;;;;;;;2.47;2.20;;;;;;;7.92;78.15;95087.34;5074397;28;20246;-81
2022/11/20 02:26:48;;;;;;;2.37;2.17;;;;;;;7.98;78.27;95091.00;5089968;28;20223;-80
2022/11/20 02:29:18;;;;;;;2.63;2.43;;;;;;;7.98;77.94;95081.56;5089728;28;20183;-80
2022/11/20 02:31:46;;;;;;;2.70;2.40;;;;;;;7.98;77.74;95083.31;5082394;28;20199;-80
2022/11/20 02:34:12;;;;;;;3.73;2.53;;;;;;;7.97;77.54;95086.84;5090292;28;20188;-80
2022/11/20 02:36:42;;;;;;;2.87;2.60;;;;;;;7.95;77.73;95078.53;5089857;28;20630;-80
2022/11/20 02:39:12;;;;;;;2.70;2.43;;;;;;;7.94;77.85;95080.28;5090462;28;20712;-81
2022/11/20 02:41:39;;;;;;;2.77;2.50;;;;;;;7.94;78.12;95085.44;5082948;28;20231;-81
2022/11/20 02:44:06;;;;;;;2.80;2.50;;;;;;;7.93;77.52;95081.25;5090798;28;20206;-81
2022/11/20 02:46:33;;;;;;;2.70;2.50;;;;;;;7.81;77.26;95087.78;5091299;28;20212;-81
2022/11/20 02:48:59;;;;;;;2.40;2.20;;;;;;;7.86;77.76;95082.16;5090887;28;20242;-81
2022/11/20 02:51:26;;;;;;;2.73;2.53;;;;;;;7.73;77.51;95082.69;5091240;28;20196;-80
2022/11/20 02:53:52;;;;;;;3.77;2.90;;;;;;;7.82;77.27;95080.88;5091219;28;20196;-80
2022/11/20 02:56:21;;;;;;;3.10;2.80;;;;;;;7.83;76.73;95085.03;5090787;28;20220;-81
2022/11/20 02:58:47;;;;;;;2.60;2.40;;;;;;;7.81;76.70;95084.41;5090888;28;20200;-81
2022/11/20 03:01:14;;;;;;;3.17;2.53;;;;;;;7.76;76.81;95087.47;5081731;28;20215;-81
2022/11/20 03:03:41;;;;;;;2.67;2.47;;;;;;;7.77;76.75;95075.47;5090911;28;20203;-81
2022/11/20 03:06:08;;;;;;;3.10;2.80;;;;;;;7.84;76.98;95084.06;5091351;28;20571;-80
2022/11/20 03:08:35;;;;;;;2.57;2.37;;;;;;;7.85;76.14;95076.22;5091141;28;20196;-81
2022/11/20 03:11:06;;;;;;;3.27;2.70;;;;;;;7.84;76.43;95077.19;5090421;28;20196;-80
2022/11/20 03:13:35;;;;;;;4.27;2.77;;;;;;;7.94;76.04;95080.28;5091212;28;20631;-81
2022/11/20 03:16:09;;;;;;;3.53;2.63;;;;;;;7.91;75.43;95075.50;5087944;28;20220;-80
2022/11/20 03:18:35;;;;;;;2.50;2.30;;;;;;;7.91;76.00;95079.84;5082823;28;20185;-81
2022/11/20 03:21:02;;;;;;;3.33;2.40;;;;;;;7.89;75.23;95076.66;5090584;28;20192;-82
2022/11/20 03:23:30;;;;;;;2.67;2.47;;;;;;;7.85;75.07;95080.53;5090059;28;20679;-81
2022/11/20 03:25:56;;;;;;;2.43;2.23;;;;;;;7.84;75.88;95077.19;5090876;28;20196;-81
2022/11/20 03:28:23;;;;;;;2.27;2.07;;;;;;;7.86;75.44;95077.03;5090709;28;20292;-81
2022/11/20 03:30:51;;;;;;;2.73;2.40;;;;;;;7.93;75.28;95063.31;5090333;28;20674;-80
2022/11/20 03:33:17;;;;;;;2.67;2.33;;;;;;;7.93;75.07;95073.56;5091093;28;20683;-81
2022/11/20 03:35:44;;;;;;;5.27;2.67;;;;;;;7.97;75.04;95067.13;5090508;28;20215;-80
2022/11/20 03:38:10;;;;;;;2.27;2.07;;;;;;;7.88;74.75;95068.19;5091073;28;20215;-82
2022/11/20 03:40:36;;;;;;;3.20;2.50;;;;;;;7.88;74.91;95075.09;5090773;28;20248;-81
2022/11/20 03:43:03;;;;;;;2.30;2.00;;;;;;;7.89;75.13;95068.97;5090423;28;20234;-83
2022/11/20 03:45:29;;;;;;;2.60;2.40;;;;;;;7.92;74.43;95071.19;5090656;28;20200;-84
2022/11/20 03:47:57;;;;;;;3.27;2.60;;;;;;;7.90;74.83;95068.00;5089580;28;20219;-83
2022/11/20 03:50:24;;;;;;;2.37;2.17;;;;;;;7.86;74.91;95070.13;5090083;28;20214;-81
2022/11/20 03:52:50;;;;;;;5.00;2.20;;;;;;;7.90;74.94;95075.69;5089615;28;20222;-81
2022/11/20 03:55:17;;;;;;;3.47;2.40;;;;;;;7.85;75.10;95076.22;5089960;28;20188;-81
2022/11/20 03:57:43;;;;;;;2.50;2.30;;;;;;;7.83;74.87;95078.16;5089834;28;20223;-81
2022/11/20 04:00:11;;;;;;;2.30;2.10;;;;;;;7.67;75.15;95088.53;5089784;28;20195;-80
2022/11/20 04:02:37;;;;;;;3.33;2.23;;;;;;;7.75;75.20;95079.97;5089606;28;20200;-82
2022/11/20 04:05:06;;;;;;;3.93;2.30;;;;;;;7.75;75.18;95077.41;5090476;28;20188;-83
2022/11/20 04:07:34;;;;;;;2.77;2.37;;;;;;;7.77;74.97;95078.03;5089966;28;20212;-84
2022/11/20 04:10:01;;;;;;;3.70;2.30;;;;;;;7.78;74.61;95080.44;5092125;28;20203;-82
2022/11/20 04:12:27;;;;;;;3.90;2.50;;;;;;;7.80;74.75;95085.38;5086199;28;20215;-82
2022/11/20 04:14:54;;;;;;;3.67;2.70;;;;;;;7.82;74.26;95086.00;5086407;28;20196;-84
2022/11/20 04:17:20;;;;;;;2.47;2.20;;;;;;;7.90;74.68;95081.59;5089812;28;20220;-84
2022/11/20 04:19:47;;;;;;;2.63;2.43;;;;;;;7.95;74.03;95076.75;5089481;28;20200;-83
2022/11/20 04:22:15;;;;;;;2.60;2.40;;;;;;;7.92;73.95;95076.31;5089949;28;20582;-83
2022/11/20 04:24:42;;;;;;;3.03;2.73;;;;;;;7.84;74.00;95077.19;5089837;28;20901;-84
2022/11/20 04:27:08;;;;;;;3.03;2.67;;;;;;;7.80;74.12;95075.94;5090544;28;20230;-84
2022/11/20 04:29:35;;;;;;;2.50;2.30;;;;;;;7.71;74.22;95082.06;5073730;28;20608;-84
2022/11/20 04:32:01;;;;;;;2.93;2.10;;;;;;;7.83;74.03;95079.91;5079286;28;20572;-83
2022/11/20 04:34:28;;;;;;;2.60;2.10;;;;;;;7.86;74.08;95071.88;5089607;28;20196;-84
2022/11/20 04:36:54;;;;;;;2.60;2.10;;;;;;;7.90;73.74;95073.91;5089994;28;20212;-84
2022/11/20 04:39:22;;;;;;;2.50;2.30;;;;;;;7.92;73.65;95073.75;5089612;28;20196;-81
2022/11/20 04:42:27;;;;;;;3.17;2.27;;;;;;;7.83;73.38;95079.91;5090126;28;20196;-81
2022/11/20 04:44:35;;;;;;;2.40;2.20;;;;;;;7.79;74.12;95076.91;5082596;28;20195;-81
2022/11/20 04:47:01;;;;;;;2.43;2.23;;;;;;;7.88;73.79;95080.22;5090080;28;20213;-82
2022/11/20 04:49:28;;;;;;;2.90;2.60;;;;;;;7.86;73.93;95077.81;5089910;28;20207;-80
2022/11/20 04:51:54;;;;;;;2.43;2.23;;;;;;;7.85;74.10;95083.91;5089640;28;20196;-81
2022/11/20 04:54:22;;;;;;;3.57;2.40;;;;;;;7.79;74.16;95084.59;5089908;28;20221;-81
2022/11/20 04:56:49;;;;;;;2.50;2.30;;;;;;;7.86;74.06;95080.38;5090045;28;20216;-82
2022/11/20 04:59:15;;;;;;;2.83;2.53;;;;;;;7.73;74.50;95080.13;5089765;28;20198;-81
2022/11/20 05:01:42;;;;;;;3.27;2.50;;;;;;;7.76;74.67;95084.91;5092330;28;20207;-81
2022/11/20 05:04:09;;;;;;;4.37;2.30;;;;;;;7.86;74.36;95084.72;5084803;28;20196;-80
2022/11/20 05:06:35;;;;;;;2.90;2.30;;;;;;;7.79;74.52;95086.34;5093675;28;20212;-81
2022/11/20 05:09:02;;;;;;;2.83;2.53;;;;;;;7.74;74.63;95080.94;5088959;28;20204;-80
2022/11/20 05:11:30;;;;;;;3.13;2.60;;;;;;;7.77;74.79;95083.97;5088177;28;20192;-81
2022/11/20 05:13:59;;;;;;;2.87;2.40;;;;;;;7.81;74.76;95086.97;5092900;28;20200;-81
2022/11/20 05:16:26;;;;;;;4.43;2.37;;;;;;;7.82;74.90;95081.69;5092090;28;20718;-81
2022/11/20 05:18:54;;;;;;;3.07;2.53;;;;;;;7.78;74.79;95085.56;5093192;28;20193;-81
2022/11/20 05:21:21;;;;;;;2.73;2.53;;;;;;;7.77;74.98;95086.50;5092409;28;20224;-81
2022/11/20 05:23:48;;;;;;;2.80;2.40;;;;;;;7.83;74.95;95088.41;5092449;28;20188;-80
2022/11/20 05:26:16;;;;;;;2.60;2.40;;;;;;;7.80;74.94;95080.25;5092751;28;20585;-80
2022/11/20 05:28:44;;;;;;;2.60;2.40;;;;;;;7.79;74.57;95084.59;5092363;28;20192;-80
2022/11/20 05:31:13;;;;;;;2.57;2.37;;;;;;;7.76;74.40;95094.38;5092959;28;20808;-83
2022/11/20 05:33:41;;;;;;;2.50;2.30;;;;;;;7.81;74.46;95084.41;5092356;28;20203;-84
2022/11/20 05:36:09;;;;;;;2.60;2.40;;;;;;;7.76;74.37;95090.06;5082298;28;20193;-84
2022/11/20 05:38:35;;;;;;;2.47;2.20;;;;;;;7.70;74.45;95083.03;5082274;28;20606;-83
2022/11/20 05:41:06;;;;;;;2.20;2.10;;;;;;;7.60;74.62;95087.59;5089471;28;20196;-82
2022/11/20 05:43:34;;;;;;;2.60;2.37;;;;;;;7.55;74.65;95088.09;5091986;28;20582;-82
2022/11/20 05:46:02;;;;;;;3.30;2.83;;;;;;;7.57;74.78;95088.72;5082027;28;20239;-81
2022/11/20 05:48:29;;;;;;;2.90;2.30;;;;;;;7.63;74.69;95093.19;5080167;28;20224;-80
2022/11/20 05:50:57;;;;;;;2.53;2.27;;;;;;;7.66;74.95;95089.50;5082438;28;21472;-81
2022/11/20 05:53:23;;;;;;;3.00;2.70;;;;;;;7.61;75.27;95095.13;5079189;28;20205;-81
2022/11/20 05:55:57;;;;;;;2.70;2.50;;;;;;;7.67;75.04;95092.84;5081584;28;20200;-82
2022/11/20 05:58:24;;;;;;;2.70;2.50;;;;;;;7.65;75.03;95093.03;5083999;28;20217;-81
2022/11/20 06:00:50;;;;;;;3.03;2.30;;;;;;;7.62;74.48;95090.78;5083475;28;20553;-80
2022/11/20 06:03:18;;;;;;;3.10;2.80;;;;;;;7.65;74.70;95087.91;5091407;28;20215;-80
2022/11/20 06:05:44;;;;;;;2.47;2.27;;;;;;;7.56;74.17;95087.13;5083952;28;20931;-80
2022/11/20 06:08:11;;;;;;;2.90;2.57;;;;;;;7.49;74.25;95090.56;5086697;28;20212;-80
2022/11/20 06:10:37;;;;;;;2.73;2.53;;;;;;;7.56;74.55;95096.59;5092893;28;20192;-81
2022/11/20 06:13:04;;;;;;;2.47;2.27;;;;;;;7.57;73.59;95095.63;5092931;28;20192;-80
2022/11/20 06:15:30;;;;;;;2.57;2.37;;;;;;;7.51;73.93;95096.28;5092574;28;20196;-81
2022/11/20 06:17:58;;;;;;;2.70;2.40;;;;;;;7.53;73.00;95090.03;5092415;28;20219;-82
2022/11/20 06:20:26;;;;;;;2.47;2.20;;;;;;;7.51;73.15;95089.41;5092615;28;20463;-81
2022/11/20 06:22:52;;;;;;;2.10;2.00;;;;;;;7.54;73.50;95086.50;5092932;28;20842;-81
2022/11/20 06:25:19;;;;;;;2.47;2.27;;;;;;;7.56;72.94;95089.69;5093251;28;20207;-81
2022/11/20 06:27:45;;;;;;;2.30;2.10;;;;;;;7.54;72.26;95095.97;5093160;28;20691;-81
2022/11/20 06:30:13;;;;;;;2.40;2.20;;;;;;;7.46;72.35;95096.03;5093422;28;20203;-82
2022/11/20 06:32:39;;;;;;;3.10;2.30;;;;;;;7.35;72.50;95097.19;5092363;28;20200;-81
2022/11/20 06:35:06;;;;;;;2.40;2.20;;;;;;;7.33;72.16;95095.75;5093504;28;20197;-81
2022/11/20 06:37:34;;;;;;;2.30;2.10;;;;;;;7.42;72.17;95099.88;5092501;28;20243;-81
2022/11/20 06:40:01;;;;;;;2.40;2.20;;;;;;;7.44;71.71;95103.88;5092622;28;20226;-82
2022/11/20 06:42:27;;;;;;;3.10;2.17;;;;;;;7.47;71.23;95100.19;5092716;28;20188;-81
2022/11/20 06:44:53;;;;;;;2.17;1.97;;;;;;;7.51;70.93;95103.97;5084126;28;20596;-82
2022/11/20 06:47:20;;;;;;;2.23;2.03;;;;;;;7.42;70.59;95107.56;5080848;28;20432;-81
2022/11/20 06:49:46;;;;;;;2.30;2.10;;;;;;;7.40;70.90;95112.84;5081165;28;20753;-81
2022/11/20 06:52:13;;;;;;;2.00;1.90;;;;;;;7.43;70.71;95106.59;5082217;28;20632;-82
2022/11/20 06:54:40;;;;;;;2.27;2.07;;;;;;;7.52;70.91;95106.38;5081442;28;20200;-81
2022/11/20 06:57:07;;;;;;;3.23;2.10;;;;;;;7.41;70.25;95111.88;5079574;28;20228;-82
2022/11/20 06:59:34;;;;;;;3.00;2.43;;;;;;;7.32;70.09;95119.75;5092057;28;20196;-82
2022/11/20 07:02:00;;;;;;;5.23;4.10;;;;;;;7.34;70.06;95126.31;5087382;28;20277;-82
2022/11/20 07:04:27;;;;;;;3.23;2.00;;;;;;;7.64;70.03;95127.28;5092655;28;20196;-81
2022/11/20 07:06:53;;;;;;;2.00;1.90;;;;;;;7.83;68.22;95128.63;5091917;28;20307;-82
2022/11/20 07:09:20;;;;;;;1.83;1.60;;;;;;;8.06;68.00;95126.06;5091908;28;20207;-82
2022/11/20 07:11:47;;;;;;;2.33;1.50;;;;;;;8.03;67.48;95128.94;5092455;28;20192;-81
2022/11/20 07:14:14;;;;;;;1.83;1.70;;;;;;;7.89;67.86;95127.91;5092643;28;20188;-82
2022/11/20 07:16:40;;;;;;;1.97;1.83;;;;;;;7.76;68.42;95130.25;5089274;28;20731;-82
2022/11/20 07:19:07;;;;;;;2.00;1.80;;;;;;;7.63;68.60;95133.38;5091353;28;20575;-81
2022/11/20 07:21:33;;;;;;;1.90;1.80;;;;;;;7.60;69.13;95136.28;5090323;28;20184;-81
2022/11/20 07:24:00;;;;;;;2.60;1.90;;;;;;;7.65;69.29;95136.56;5083678;28;20189;-82
2022/11/20 07:26:26;;;;;;;2.20;2.00;;;;;;;7.75;69.37;95137.13;5081418;28;20195;-81
2022/11/20 07:28:54;;;;;;;2.70;1.83;;;;;;;7.59;69.21;95138.03;5082426;28;20199;-82
2022/11/20 07:31:20;;;;;;;2.30;1.83;;;;;;;7.57;69.69;95139.16;5093392;28;20196;-82
2022/11/20 07:33:47;;;;;;;2.00;1.77;;;;;;;7.60;69.58;95136.28;5095476;28;20200;-82
2022/11/20 07:36:13;;;;;;;5.70;5.00;;;;;;;7.69;69.67;95126.78;5093972;28;20257;-82
2022/11/20 07:38:40;;;;;;;2.33;2.13;;;;;;;7.68;69.45;95136.25;5093066;28;20216;-81
2022/11/20 07:41:06;;;;;;;2.53;2.17;;;;;;;7.66;69.88;95127.13;5092765;28;20192;-81
2022/11/20 07:43:33;;;;;;;2.30;2.10;;;;;;;7.62;69.87;95135.16;5093474;28;20231;-82
2022/11/20 07:46:00;;;;;;;2.53;2.33;;;;;;;7.77;78.67;95144.66;5092813;28;20220;-83
2022/11/20 07:48:27;;;;;;;10.03;3.43;;;;;;;8.62;100.00;95133.28;5093819;28;20218;-83
2022/11/20 07:51:02;;;;;;;4.50;2.80;;;;;;;9.17;87.83;95131.25;5091172;28;20196;-81
2022/11/20 07:53:29;;;;;;;3.40;2.00;;;;;;;9.09;69.77;95137.25;5093030;28;20207;-83
2022/11/20 07:55:56;;;;;;;2.20;2.00;;;;;;;8.78;68.40;95126.38;5093006;28;20192;-82
2022/11/20 07:58:23;;;;;;;2.33;2.03;;;;;;;8.61;68.45;95133.44;5082849;28;20635;-82
2022/11/20 08:00:49;;;;;;;2.37;2.17;;;;;;;8.35;68.99;95144.09;5091943;28;20211;-82
2022/11/20 08:03:18;;;;;;;3.13;2.43;;;;;;;8.06;70.04;95141.44;5093782;28;20218;-82
2022/11/20 08:05:44;;;;;;;2.40;2.20;;;;;;;8.00;70.79;95144.66;5094727;28;20200;-83
2022/11/20 08:08:11;;;;;;;2.80;2.40;;;;;;;7.85;71.29;95147.97;5094448;28;20227;-82
2022/11/20 08:10:40;;;;;;;2.33;2.13;;;;;;;7.89;71.40;95151.78;5094492;28;20196;-83
2022/11/20 08:15:54;;;;;;;2.60;2.03;;;;;;;7.88;71.40;95155.34;5093801;28;20506;-83
2022/11/20 08:18:22;;;;;;;2.60;2.33;;;;;;;7.87;71.22;95151.16;5092227;28;20891;-83
2022/11/20 08:20:49;;;;;;;2.27;2.07;;;;;;;7.90;70.88;95150.81;5091876;28;20200;-82
2022/11/20 08:23:15;;;;;;;2.50;2.30;;;;;;;7.91;71.14;95156.72;5080184;28;20200;-83
2022/11/20 08:25:42;;;;;;;2.50;2.30;;;;;;;8.01;71.02;95147.06;5091344;28;20211;-82
2022/11/20 08:28:10;;;;;;;2.10;1.90;;;;;;;7.99;70.51;95154.13;5091620;28;20227;-82
2022/11/20 08:30:37;;;;;;;3.50;2.80;;;;;;;7.95;70.69;95153.66;5091680;28;20200;-83
2022/11/20 08:33:06;;;;;;;11.43;8.73;;;;;;;7.95;70.39;95155.44;5091097;28;20200;-82
2022/11/20 08:35:36;;;;;;;3.60;2.60;;;;;;;7.90;70.55;95150.81;5092040;28;20589;-83
2022/11/20 08:38:02;;;;;;;2.70;2.00;;;;;;;7.85;70.48;95160.78;5094172;28;20824;-83
2022/11/20 08:40:29;;;;;;;2.53;2.13;;;;;;;7.87;70.48;95164.00;5095527;28;20200;-82
2022/11/20 08:42:55;;;;;;;2.57;2.13;;;;;;;7.90;69.79;95155.13;5095409;28;20566;-83
2022/11/20 08:45:22;;;;;;;2.40;2.20;;;;;;;7.98;69.99;95155.09;5095125;28;20200;-82
2022/11/20 08:47:48;;;;;;;2.20;2.00;;;;;;;7.97;68.54;95154.28;5094210;28;20729;-82
2022/11/20 08:50:16;;;;;;;2.30;2.10;;;;;;;7.88;69.21;95152.78;5090988;28;20258;-82
2022/11/20 08:52:44;;;;;;;2.27;2.10;;;;;;;7.89;68.22;95149.22;5094238;28;20651;-82
2022/11/20 08:55:11;;;;;;;2.20;2.00;;;;;;;7.88;68.00;95155.34;5085796;28;20212;-82
2022/11/20 08:57:38;;;;;;;2.53;1.93;;;;;;;7.96;68.31;95155.25;5094193;28;20215;-82
2022/11/20 09:00:07;;;;;;;2.20;2.00;;;;;;;8.04;68.40;95154.41;5094319;28;20578;-82
2022/11/20 09:02:33;;;;;;;2.37;2.17;;;;;;;7.98;67.35;95152.53;5093296;28;20196;-83
2022/11/20 09:05:02;;;;;;;1.93;1.80;;;;;;;7.88;67.74;95149.41;5090121;28;20211;-82
2022/11/20 09:07:29;;;;;;;2.40;2.20;;;;;;;7.90;67.70;95145.69;5093175;28;20223;-81
2022/11/20 09:09:56;;;;;;;2.00;1.80;;;;;;;7.88;67.69;95147.66;5093440;28;20570;-81
2022/11/20 09:12:23;;;;;;;2.23;1.93;;;;;;;7.95;67.56;95145.97;5093444;28;20196;-80
2022/11/20 09:14:49;;;;;;;2.00;1.80;;;;;;;7.97;66.91;95145.81;5086563;28;20208;-81
2022/11/20 09:17:16;;;;;;;2.67;2.10;;;;;;;8.01;66.83;95149.63;5087631;28;20231;-82
2022/11/20 09:19:43;;;;;;;2.87;2.00;;;;;;;8.07;66.82;95146.38;5092440;28;20184;-82
2022/11/20 09:22:09;;;;;;;2.80;1.80;;;;;;;8.08;66.21;95147.19;5091783;28;20690;-81
2022/11/20 09:24:36;;;;;;;2.17;1.60;;;;;;;8.21;65.66;95144.84;5085166;28;20675;-81
2022/11/20 09:27:05;;;;;;;1.80;1.70;;;;;;;8.41;66.15;95134.91;5090006;28;20227;-82
2022/11/20 09:29:32;;;;;;;2.10;1.90;;;;;;;8.41;64.87;95132.34;5092121;28;20374;-83
2022/11/20 09:31:58;;;;;;;1.77;1.57;;;;;;;8.38;64.92;95137.81;5089864;28;20223;-83
2022/11/20 09:34:24;;;;;;;2.30;2.10;;;;;;;8.46;65.02;95120.63;5092517;28;20568;-82
2022/11/20 09:36:51;;;;;;;2.00;1.70;;;;;;;8.43;64.10;95133.78;5091335;28;20216;-82
2022/11/20 09:39:17;;;;;;;1.83;1.73;;;;;;;8.28;63.75;95122.63;5091481;28;20855;-83
2022/11/20 09:42:18;;;;;;;3.63;3.20;;;;;;;8.37;64.05;95126.78;5091735;28;20720;-83
2022/11/20 09:45:01;;;;;;;1.83;1.73;;;;;;;8.40;64.10;95123.88;5072176;28;20204;-82
2022/11/20 09:47:37;;;;;;;2.00;1.80;;;;;;;8.41;64.31;95116.97;5091535;28;20212;-82
2022/11/20 09:50:20;;;;;;;2.30;2.10;;;;;;;8.41;63.71;95125.47;5084415;28;20583;-81
2022/11/20 09:52:56;;;;;;;1.93;1.60;;;;;;;8.44;63.98;95114.84;5084130;28;20196;-83
2022/11/20 09:55:22;;;;;;;2.13;1.63;;;;;;;8.38;63.89;95125.00;5090963;28;20425;-82
2022/11/20 09:57:53;;;;;;;1.83;1.70;;;;;;;8.50;63.21;95110.78;5092000;28;20652;-83
2022/11/20 10:00:21;;;;;;;2.43;1.90;;;;;;;8.68;62.86;95106.09;5090768;28;20671;-82
2022/11/20 10:02:53;;;;;;;3.33;1.67;;;;;;;8.83;63.08;95111.25;5089031;28;20225;-82
2022/11/20 10:05:22;;;;;;;1.67;1.40;;;;;;;8.93;62.40;95111.78;5086288;28;20203;-82
2022/11/20 10:07:56;;;;;;;1.70;1.60;;;;;;;9.05;61.65;95112.09;5090625;28;20220;-81
2022/11/20 10:10:31;;;;;;;2.33;1.40;;;;;;;9.32;61.48;95101.19;5087343;28;20188;-83
2022/11/20 10:13:14;;;;;;;1.63;1.40;;;;;;;9.34;60.73;95101.81;5091582;28;20699;-82
2022/11/20 10:15:55;;;;;;;2.57;1.67;;;;;;;9.30;60.81;95103.94;5082770;28;20894;-82
2022/11/20 10:18:37;;;;;;;2.67;1.60;;;;;;;9.29;61.24;95125.47;5084547;28;20224;-82
2022/11/20 10:21:13;;;;;;;1.73;1.47;;;;;;;8.99;61.01;95113.63;5090493;28;20672;-82
2022/11/20 10:23:54;;;;;;;1.53;1.43;;;;;;;9.02;61.39;95105.59;5085300;28;20180;-82
2022/11/20 10:26:26;;;;;;;1.60;1.50;;;;;;;8.98;61.54;95104.34;5091368;28;20553;-82
2022/11/20 10:29:08;;;;;;;1.47;1.37;;;;;;;9.05;61.32;95102.63;5090820;28;20192;-82
2022/11/20 10:31:38;;;;;;;1.50;1.40;;;;;;;9.03;61.61;95111.53;5091155;28;20184;-82
2022/11/20 10:34:13;;;;;;;4.00;1.70;;;;;;;8.91;61.80;95104.25;5091268;28;20711;-82
2022/11/20 10:36:44;;;;;;;2.07;1.67;;;;;;;8.95;62.13;95108.06;5091584;28;20212;-83
2022/11/20 10:39:19;;;;;;;1.67;1.50;;;;;;;8.96;62.25;95111.44;5091358;28;20197;-83
2022/11/20 10:41:51;;;;;;;1.70;1.60;;;;;;;9.16;65.08;95111.69;5092328;28;20404;-83
2022/11/20 10:47:04;;;;;;;1.47;1.37;;;;;;;9.37;63.42;95104.03;5091211;28;20219;-82
2022/11/20 10:49:33;;;;;;;1.97;1.50;;;;;;;9.25;61.78;95108.81;5091565;28;20268;-83
2022/11/20 10:52:09;;;;;;;2.17;1.37;;;;;;;9.30;62.45;95105.72;5093079;28;20214;-83
2022/11/20 10:54:44;;;;;;;1.60;1.20;;;;;;;9.22;60.44;95105.81;5092023;28;20204;-83
2022/11/20 10:57:24;;;;;;;2.13;1.40;;;;;;;9.19;60.61;95113.88;5081125;28;20215;-82
2022/11/20 11:00:05;;;;;;;1.37;1.27;;;;;;;9.14;60.17;95100.78;5090133;28;20191;-82
2022/11/20 11:02:35;;;;;;;1.20;1.10;;;;;;;9.05;60.06;95107.78;5090712;28;20200;-82
2022/11/20 11:05:14;;;;;;;1.57;1.47;;;;;;;9.09;60.52;95103.88;5090982;28;20203;-83
2022/11/20 11:07:41;;;;;;;1.13;1.13;;;;;;;9.15;61.34;95103.16;5090906;28;20730;-82
2022/11/20 11:10:16;;;;;;;1.73;1.40;;;;;;;9.21;60.85;95093.97;5087912;28;20189;-82
2022/11/20 11:12:46;;;;;;;1.83;1.70;;;;;;;9.22;60.82;95093.00;5090603;28;20275;-82
2022/11/20 11:15:26;;;;;;;2.63;1.40;;;;;;;9.17;60.93;95088.38;5084490;28;20223;-83
2022/11/20 11:17:52;;;;;;;1.40;1.30;;;;;;;9.04;61.23;95085.66;5083760;28;20272;-83
2022/11/20 11:20:20;;;;;;;1.40;1.30;;;;;;;9.09;61.84;95087.69;5086762;28;20563;-83
2022/11/20 11:22:49;;;;;;;2.10;1.47;;;;;;;9.06;61.85;95093.97;5087431;28;20577;-82
2022/11/20 11:25:28;;;;;;;2.57;1.30;;;;;;;9.15;62.14;95069.00;5081672;28;20223;-80
2022/11/20 11:27:57;;;;;;;1.50;1.40;;;;;;;9.15;62.02;95074.91;5089972;28;20230;-82
2022/11/20 11:30:26;;;;;;;1.97;1.60;;;;;;;9.21;61.81;95075.97;5089810;28;20203;-81
2022/11/20 11:33:04;;;;;;;1.37;1.27;;;;;;;9.38;61.33;95079.13;5089442;28;20188;-83
2022/11/20 11:35:31;;;;;;;1.93;1.30;;;;;;;9.47;60.82;95078.81;5079081;28;20245;-82
2022/11/20 11:38:05;;;;;;;1.47;1.30;;;;;;;9.49;60.46;95069.16;5076723;28;20224;-81
2022/11/20 11:40:34;;;;;;;1.50;1.40;;;;;;;9.39;60.83;95078.94;5080689;28;20188;-82
2022/11/20 11:43:05;;;;;;;2.13;1.50;;;;;;;9.29;60.14;95075.84;5089341;28;20222;-81
2022/11/20 11:45:31;;;;;;;1.27;1.17;;;;;;;9.40;60.80;95074.59;5089968;28;20197;-82
2022/11/20 11:48:01;;;;;;;1.40;1.30;;;;;;;9.32;60.36;95065.22;5088901;28;20583;-81
2022/11/20 11:50:30;;;;;;;2.03;1.33;;;;;;;9.29;60.38;95063.00;5089381;28;20192;-82
2022/11/20 11:53:06;;;;;;;1.13;1.03;;;;;;;9.21;60.37;95061.38;5089308;28;20638;-82
2022/11/20 11:55:37;;;;;;;1.93;1.40;;;;;;;9.17;60.17;95077.31;5088969;28;20188;-81